createdAt,value
2023-03-18T00:00:13.059Z,4.11
2023-03-18T00:05:36.174Z,4.05
2023-03-18T00:10:39.788Z,4.03
2023-03-18T00:15:42.735Z,4.00
2023-03-18T00:20:46.003Z,3.95
2023-03-18T00:25:53.036Z,3.94
2023-03-18T00:31:01.688Z,3.88
2023-03-18T00:36:06.562Z,3.83
2023-03-18T00:41:16.027Z,3.81
2023-03-18T00:46:24.550Z,3.77
2023-03-18T00:51:31.539Z,3.75
2023-03-18T00:56:37.802Z,3.75
2023-03-18T01:01:40.838Z,3.74
2023-03-18T01:06:43.740Z,3.75
2023-03-18T01:11:46.620Z,3.75
2023-03-18T01:16:49.735Z,3.73
2023-03-18T01:21:52.790Z,3.72
2023-03-18T01:26:57.012Z,3.71
2023-03-18T01:32:00.517Z,3.70
2023-03-18T01:37:03.565Z,3.71
2023-03-18T01:42:06.659Z,3.67
2023-03-18T01:47:10.699Z,3.60
2023-03-18T01:52:23.326Z,3.56
2023-03-18T01:57:28.386Z,3.52
2023-03-18T02:02:32.965Z,3.45
2023-03-18T02:07:37.308Z,3.43
2023-03-18T02:12:46.261Z,3.40
2023-03-18T02:18:10.833Z,3.36
2023-03-18T02:23:36.743Z,3.33
2023-03-18T02:28:41.564Z,3.30
2023-03-18T02:33:46.945Z,3.28
2023-03-18T02:38:50.005Z,3.24
2023-03-18T02:43:53.883Z,3.22
2023-03-18T02:48:59.342Z,3.19
2023-03-18T02:54:10.262Z,3.16
2023-03-18T02:59:13.817Z,3.10
2023-03-18T03:04:18.394Z,3.11
2023-03-18T03:09:22.674Z,3.14
2023-03-18T03:14:25.618Z,3.14
2023-03-18T03:19:28.701Z,3.14
2023-03-18T03:24:32.113Z,3.11
2023-03-18T03:29:35.706Z,3.10
2023-03-18T03:34:38.698Z,3.08
2023-03-18T03:39:41.587Z,3.03
2023-03-18T03:44:44.581Z,2.98
2023-03-18T03:49:47.780Z,2.93
2023-03-18T03:54:50.827Z,2.87
2023-03-18T03:59:54.085Z,2.83
2023-03-18T04:04:57.013Z,2.80
2023-03-18T04:10:00.530Z,2.79
2023-03-18T04:15:04.264Z,2.77
2023-03-18T04:20:08.230Z,2.77
2023-03-18T04:25:12.398Z,2.76
2023-03-18T04:30:15.474Z,2.74
2023-03-18T04:35:19.880Z,2.74
2023-03-18T04:40:23.125Z,2.76
2023-03-18T04:45:26.070Z,2.78
2023-03-18T04:50:29.469Z,2.76
2023-03-18T04:55:34.119Z,2.78
2023-03-18T05:00:37.498Z,2.81
2023-03-18T05:05:40.469Z,2.87
2023-03-18T05:10:43.398Z,2.94
2023-03-18T05:15:46.348Z,3.11
2023-03-18T05:20:49.300Z,3.27
2023-03-18T05:25:52.408Z,3.40
2023-03-18T05:30:55.631Z,3.56
2023-03-18T05:35:58.736Z,3.66
2023-03-18T05:41:01.640Z,3.72
2023-03-18T05:46:05.361Z,3.79
2023-03-18T05:51:08.237Z,3.87
2023-03-18T05:56:12.377Z,3.96
2023-03-18T06:01:15.275Z,4.05
2023-03-18T06:06:18.994Z,4.15
2023-03-18T06:11:22.388Z,4.24
2023-03-18T06:16:25.917Z,4.36
2023-03-18T06:21:29.382Z,4.49
2023-03-18T06:26:32.293Z,4.63
2023-03-18T06:31:35.692Z,4.78
2023-03-18T06:36:38.845Z,4.88
2023-03-18T06:41:41.790Z,4.95
2023-03-18T06:46:44.812Z,5.06
2023-03-18T06:51:48.748Z,5.14
2023-03-18T06:56:51.853Z,5.29
2023-03-18T07:01:55.251Z,5.39
2023-03-18T07:06:58.313Z,5.56
2023-03-18T07:12:01.717Z,5.80
2023-03-18T07:17:04.579Z,6.13
2023-03-18T07:22:07.683Z,6.42
2023-03-18T07:27:13.381Z,6.74
2023-03-18T07:32:17.065Z,7.01
2023-03-18T07:37:20.752Z,7.22
2023-03-18T07:42:23.894Z,7.34
2023-03-18T07:47:26.811Z,7.38
2023-03-18T07:52:30.052Z,7.40
2023-03-18T07:57:36.820Z,7.43
2023-03-18T08:02:40.856Z,7.74
2023-03-18T08:07:43.794Z,7.92
2023-03-18T08:12:53.238Z,8.17
2023-03-18T08:17:56.642Z,8.44
2023-03-18T08:22:59.493Z,8.65
2023-03-18T08:28:02.881Z,8.79
2023-03-18T08:33:05.978Z,9.03
2023-03-18T08:38:09.920Z,9.17
2023-03-18T08:43:13.545Z,9.49
2023-03-18T08:48:16.406Z,9.78
2023-03-18T08:53:19.821Z,9.80
2023-03-18T08:58:22.651Z,9.95
2023-03-18T09:03:25.684Z,10.13
2023-03-18T09:08:30.842Z,10.13
2023-03-18T09:13:34.239Z,10.20
2023-03-18T09:18:37.647Z,10.36
2023-03-18T09:23:41.607Z,10.40
2023-03-18T09:28:44.488Z,10.48
2023-03-18T09:33:47.822Z,10.44
2023-03-18T09:38:50.710Z,10.46
2023-03-18T09:44:10.981Z,10.57
2023-03-18T09:49:49.580Z,10.55
2023-03-18T09:55:10.530Z,10.59
2023-03-18T10:00:24.442Z,10.73
2023-03-18T10:05:56.864Z,10.83
2023-03-18T10:11:12.370Z,11.02
2023-03-18T10:16:25.921Z,11.36
2023-03-18T10:22:05.452Z,11.52
2023-03-18T10:27:42.766Z,11.71
2023-03-18T10:33:04.053Z,11.83
2023-03-18T10:38:29.688Z,11.79
2023-03-18T10:43:34.239Z,11.76
2023-03-18T10:48:50.348Z,11.76
2023-03-18T10:54:13.786Z,11.70
2023-03-18T10:59:20.983Z,11.83
2023-03-18T11:04:24.627Z,11.73
2023-03-18T11:09:39.335Z,11.60
2023-03-18T11:14:49.642Z,11.39
2023-03-18T11:20:11.593Z,11.38
2023-03-18T11:25:18.127Z,11.40
2023-03-18T11:30:34.376Z,11.58
2023-03-18T11:35:50.150Z,11.71
2023-03-18T11:40:53.225Z,11.67
2023-03-18T11:46:09.379Z,11.57
2023-03-18T11:51:49.270Z,11.54
2023-03-18T11:58:03.386Z,11.52
2023-03-18T12:03:35.630Z,11.46
2023-03-18T12:09:09.023Z,11.62
2023-03-18T12:14:42.436Z,11.77
2023-03-18T12:20:13.819Z,12.03
2023-03-18T12:26:02.033Z,12.23
2023-03-18T12:31:52.729Z,12.38
2023-03-18T12:37:31.975Z,12.49
2023-03-18T12:43:02.413Z,12.47
2023-03-18T12:48:14.340Z,12.46
2023-03-18T12:53:28.756Z,12.42
2023-03-18T12:58:39.869Z,12.66
2023-03-18T13:04:02.941Z,13.11
2023-03-18T13:09:28.018Z,13.42
2023-03-18T13:15:16.767Z,13.68
2023-03-18T13:20:29.949Z,13.87
2023-03-18T13:26:08.883Z,14.05
2023-03-18T13:31:33.139Z,14.04
2023-03-18T13:37:13.540Z,13.85
2023-03-18T13:42:43.100Z,13.52
2023-03-18T13:47:46.463Z,13.45
2023-03-18T13:52:49.704Z,13.51
2023-03-18T13:58:11.039Z,13.61
2023-03-18T14:03:24.941Z,13.81
2023-03-18T14:08:50.170Z,13.72
2023-03-18T14:14:03.136Z,13.50
2023-03-18T14:19:11.228Z,13.14
2023-03-18T14:24:24.647Z,12.86
2023-03-18T14:29:47.303Z,12.70
2023-03-18T14:35:02.502Z,12.67
2023-03-18T14:40:17.811Z,12.56
2023-03-18T14:45:28.505Z,12.56
2023-03-18T14:50:52.844Z,12.58
2023-03-18T14:55:58.971Z,12.67
2023-03-18T15:01:09.602Z,12.72
2023-03-18T15:06:21.767Z,12.78
2023-03-18T15:11:25.433Z,12.75
2023-03-18T15:16:33.612Z,12.63
2023-03-18T15:21:37.681Z,12.45
2023-03-18T15:26:42.490Z,12.25
2023-03-18T15:31:47.711Z,12.02
2023-03-18T15:37:22.108Z,11.82
2023-03-18T15:42:26.634Z,11.64
2023-03-18T15:47:35.872Z,11.47
2023-03-18T15:52:43.056Z,11.35
2023-03-18T15:57:45.893Z,11.25
2023-03-18T16:02:50.661Z,11.15
2023-03-18T16:07:54.235Z,11.05
2023-03-18T16:13:02.313Z,10.94
2023-03-18T16:18:05.315Z,10.86
2023-03-18T16:23:08.360Z,10.75
2023-03-18T16:28:25.060Z,10.63
2023-03-18T16:33:28.192Z,10.50
2023-03-18T16:38:34.426Z,10.34
2023-03-18T16:43:37.352Z,10.18
2023-03-18T16:48:40.498Z,10.02
2023-03-18T16:53:43.858Z,9.86
2023-03-18T16:58:46.772Z,9.72
2023-03-18T17:03:49.705Z,9.60
2023-03-18T17:08:53.554Z,9.48
2023-03-18T17:13:56.443Z,9.40
2023-03-18T17:18:59.463Z,9.34
2023-03-18T17:24:03.084Z,9.26
2023-03-18T17:29:06.260Z,9.15
2023-03-18T17:34:14.124Z,9.04
2023-03-18T17:39:17.490Z,8.94
2023-03-18T17:44:29.660Z,8.85
2023-03-18T17:49:32.831Z,8.77
2023-03-18T17:54:36.161Z,8.71
2023-03-18T17:59:39.098Z,8.67
2023-03-18T18:04:43.359Z,8.63
2023-03-18T18:09:47.032Z,8.62
2023-03-18T18:14:50.147Z,8.60
2023-03-18T18:19:53.055Z,8.62
2023-03-18T18:24:57.929Z,8.60
2023-03-18T18:30:00.872Z,8.55
2023-03-18T18:35:04.239Z,8.52
2023-03-18T18:40:08.073Z,8.47
2023-03-18T18:45:19.269Z,8.45
2023-03-18T18:50:35.487Z,8.41
2023-03-18T18:55:38.977Z,8.35
2023-03-18T19:00:41.957Z,8.28
2023-03-18T19:05:49.241Z,8.21
2023-03-18T19:10:58.195Z,8.16
2023-03-18T19:16:05.131Z,8.13
2023-03-18T19:21:08.254Z,8.09
2023-03-18T19:26:14.687Z,8.06
2023-03-18T19:31:30.838Z,7.99
2023-03-18T19:36:41.171Z,7.94
2023-03-18T19:41:47.234Z,7.91
2023-03-18T19:46:54.088Z,7.86
2023-03-18T19:51:57.164Z,7.80
2023-03-18T19:57:12.408Z,7.74
2023-03-18T20:02:31.466Z,7.68
2023-03-18T20:07:34.489Z,7.65
2023-03-18T20:12:41.171Z,7.64
2023-03-18T20:17:49.806Z,7.63
2023-03-18T20:22:55.707Z,7.62
2023-03-18T20:27:59.407Z,7.60
2023-03-18T20:33:04.469Z,7.57
2023-03-18T20:38:14.220Z,7.51
2023-03-18T20:43:19.560Z,7.45
2023-03-18T20:48:24.228Z,7.43
2023-03-18T20:53:32.096Z,7.41
2023-03-18T20:58:35.057Z,7.37
2023-03-18T21:03:38.371Z,7.34
2023-03-18T21:08:42.067Z,7.28
2023-03-18T21:13:45.352Z,7.23
2023-03-18T21:18:49.935Z,7.16
2023-03-18T21:23:54.245Z,7.11
2023-03-18T21:28:57.675Z,7.08
2023-03-18T21:34:01.141Z,7.04
2023-03-18T21:39:04.482Z,7.00
2023-03-18T21:44:11.623Z,6.95
2023-03-18T21:49:14.460Z,6.88
2023-03-18T21:54:21.466Z,6.83
2023-03-18T21:59:24.399Z,6.74
2023-03-18T22:04:28.234Z,6.62
2023-03-18T22:09:31.494Z,6.52
2023-03-18T22:14:34.349Z,6.44
2023-03-18T22:19:37.210Z,6.35
2023-03-18T22:24:40.031Z,6.25
2023-03-18T22:29:42.959Z,6.18
2023-03-18T22:34:46.109Z,6.11
2023-03-18T22:39:50.036Z,6.04
2023-03-18T22:44:53.576Z,5.93
2023-03-18T22:49:56.447Z,5.75
2023-03-18T22:55:04.012Z,5.68
2023-03-18T23:00:22.211Z,5.67
2023-03-18T23:05:25.118Z,5.68
2023-03-18T23:10:28.641Z,5.76
2023-03-18T23:15:31.739Z,5.85
2023-03-18T23:20:35.493Z,5.91
2023-03-18T23:25:40.936Z,5.96
2023-03-18T23:30:49.130Z,5.99
2023-03-18T23:35:52.137Z,6.01
2023-03-18T23:40:55.054Z,6.05
2023-03-18T23:45:58.182Z,6.10
2023-03-18T23:51:01.337Z,6.17
2023-03-18T23:56:04.404Z,6.24
